Bel'Cy, Republic of Moldova

9:20 PM EEST on September 02, 2014 (GMT +0300)
Balti | Change Station
CLOSE
Current Station
Airport
Location: BALTI INTL ARPT,
Elevation: 758 ft
Nearby Weather Stations

Elev 758 ft 47.84 °N, 27.78 °E | Updated 20 minutes ago

Clear
Clear
73 °F
Feels Like 73 °F
N
8
Wind Variable Wind from North

Today
High -- | Low -- °F
--% Chance of Precip.
Yesterday
High -- | Low -- °F
Precip. -- in
6:27 AM 7:47 PM
First Quarter, 53% visible
Pressure 29.95 in
Visibility 6.2 miles
Clouds
Dew Point 55 °F
Humidity 53%
Rainfall 0.00 in
Snow Depth Not available.
UV Not available.
Pollen Not available.
Air Quality Not available.
Flu Activity Not available.
METAR LUBL 021800Z AUTO 36007KT 9999 NCD 23/13 Q1014

More Conditions Fewer Conditions

Pressure 29.95 in
Visibility 6.2 miles
Clouds
Dew Point 55 °F
Humidity 53%
Rainfall 0.00 in
Snow Depth Not available.
UV Not available.
Pollen Not available.
Air Quality Not available.
Flu Activity Not available.
METAR LUBL 021800Z AUTO 36007KT 9999 NCD 23/13 Q1014

More Conditions Fewer Conditions

10-Day Weather Forecast

Almanac

Astronomy

Sep. 02, 2014 Rise Set
Actual Time 6:27 AM EEST 7:47 PM EEST
Civil Twilight 5:55 AM EEST 8:19 PM EEST
Nautical Twilight 5:16 AM EEST 8:57 PM EEST
Astronomical Twilight 4:35 AM EEST 9:39 PM EEST
Moon 2:23 PM EEST 11:52 PM EEST
Length of Visible Light 14h 23m
Length of Day
13h 20m
Tomorrow will be 3m 21s shorter.
First Quarter, 53% of the Moon is Illuminated
Today
First Quarter
Sep 8
Full
Sep 15
Last Quarter
Sep 24
New
Oct 1
First Quarter

Today's Extremes

Country Highs Country Lows

Community

WunderPhotos

Upload Photos

1,749,727 photos uploaded!

WunderBlogs® & News

Nearby

Snow Depth

Not available.

Earthquake Activity

City Distance Mag. Time & Date
No recent earthquake activity has been reported nearby.
Minimum magnitude displayed is 2.5.

Coastal Water Temperatures

Place Temperature
No Stations Reporting

Nearby Weather Stations